This is the latest recevied weather packets stored in our database for station/object BMCB-22. If no packets are shown the sender has not sent any weather packets the latest 10 day(s).
| Time | Temp. | Humidity | Pressure | Rain* | Wind** | Luminosity | Snow |
|---|---|---|---|---|---|---|---|
| 1777683656 | 12.22° C | 47% | 1022.3 hPa | 0 mm | - | 0 W/m² | - |
| 1777683056 | 12.78° C | 45% | 1022.3 hPa | 0 mm | - | 0 W/m² | - |
| 1777679465 | 13.33° C | 44% | 1022.5 hPa | 0 mm | - | 0 W/m² | - |
| 1777672862 | 12.78° C | 41% | 1023.3 hPa | 0 mm | - | 0 W/m² | - |
| 1777668066 | 12.78° C | 42% | 1023.5 hPa | 0 mm | - | 0 W/m² | - |
| 1777666866 | 13.33° C | 40% | 1023.3 hPa | 0 mm | - | 0 W/m² | - |
| 1777665065 | 13.89° C | 39% | 1023.2 hPa | 0 mm | - | 0 W/m² | - |
| 1777663261 | 15° C | 36% | 1022.9 hPa | 0 mm | - | 0 W/m² | - |
| 1777662066 | 16.11° C | 33% | 1022.6 hPa | 0 mm | - | 2 W/m² | - |
| 1777660263 | 17.22° C | 31% | 1022.2 hPa | 0 mm | - | 22 W/m² | - |
| 1777659663 | 17.78° C | 30% | 1022.1 hPa | 0 mm | - | 36 W/m² | - |
| 1777658466 | 18.33° C | 28% | 1021.9 hPa | 0 mm | - | 68 W/m² | - |
| 1777656664 | 18.89° C | 29% | 1021.7 hPa | 0 mm | - | 136 W/m² | - |
| 1777656061 | 19.44° C | 29% | 1021.6 hPa | 0 mm | - | 162 W/m² | - |
| 1777653060 | 20° C | 27% | 1021.7 hPa | 0 mm | - | 300 W/m² | - |
| 1777650057 | 20.56° C | 28% | 1021.7 hPa | 0 mm | - | 436 W/m² | - |
| 1777648259 | 20.56° C | 28% | 1022 hPa | 0 mm | - | 434 W/m² | - |
| 1777646457 | 20° C | 29% | 1022.3 hPa | 0 mm | - | 102 W/m² | - |
| 1777644655 | 20° C | 28% | 1022.3 hPa | 0 mm | - | 634 W/m² | - |
| 1777636254 | 18.33° C | 28% | 1023.6 hPa | 0 mm | - | 776 W/m² | - |
| 1777631455 | 16.67° C | 31% | 1024.3 hPa | 0 mm | - | 754 W/m² | - |
| 1777630258 | 16.11° C | 31% | 1024.5 hPa | 0 mm | - | 734 W/m² | - |
| 1777627857 | 15.56° C | 33% | 1024.6 hPa | 0 mm | - | 684 W/m² | - |
| 1777627257 | 15° C | 32% | 1024.8 hPa | 0 mm | - | 668 W/m² | - |
| 1777624853 | 13.89° C | 36% | 1025 hPa | 0 mm | - | 594 W/m² | - |
* Rain latest hour (hover to see other rain measurements)
** Current wind speed in m/s (hover to see current wind gust speed)